Time;durP1;ratioP1;P1;durP2;ratioP2;P2;SDS_P1;SDS_P2;PMS_P1;PMS_P2;Temp;Humidity;BMP_temperature;BMP_pressure;BME280_temperature;BME280_humidity;BME280_pressure;Samples;Min_cycle;Max_cycle;Signal;HPM_P1;HPM_P2
2021/03/02 00:02:08;;;;;;;;;;;8.10;53.70;;;;;;5016531;28;20388;-78
2021/03/02 00:04:35;;;;;;;;;;;8.10;53.70;;;;;;5014631;28;19925;-78
2021/03/02 00:07:02;;;;;;;;;;;8.10;53.80;;;;;;5023851;28;19990;-80
2021/03/02 00:09:28;;;;;;;;;;;8.10;53.80;;;;;;5024505;28;20444;-79
2021/03/02 00:11:55;;;;;;;;;;;8.10;53.80;;;;;;5008762;28;19933;-78
2021/03/02 00:14:22;;;;;;;;;;;8.00;53.80;;;;;;4996720;28;19922;-79
2021/03/02 00:16:51;;;;;;;;;;;8.00;53.90;;;;;;5002390;28;19921;-79
2021/03/02 00:19:19;;;;;;;;;;;8.00;54.00;;;;;;5009093;28;19921;-78
2021/03/02 00:21:47;;;;;;;;;;;7.90;54.00;;;;;;4996612;28;20334;-79
2021/03/02 00:24:16;;;;;;;;;;;7.90;54.10;;;;;;5000566;28;19944;-80
2021/03/02 00:26:47;;;;;;;;;;;7.90;54.20;;;;;;5016594;28;20485;-80
2021/03/02 00:29:13;;;;;;;;;;;7.90;54.20;;;;;;5014125;28;19972;-80
2021/03/02 00:31:41;;;;;;;;;;;7.90;54.30;;;;;;5016265;28;19921;-81
2021/03/02 00:34:07;;;;;;;;;;;7.90;54.30;;;;;;5013789;28;19925;-80
2021/03/02 00:36:33;;;;;;;;;;;7.80;54.20;;;;;;4996496;28;19925;-80
2021/03/02 00:39:00;;;;;;;;;;;7.80;54.30;;;;;;4996834;28;20274;-80
2021/03/02 00:41:26;;;;;;;;;;;7.80;54.50;;;;;;5015729;28;20389;-80
2021/03/02 00:43:53;;;;;;;;;;;7.70;54.50;;;;;;5014168;28;19928;-80
2021/03/02 00:46:20;;;;;;;;;;;7.70;54.60;;;;;;5013964;28;20062;-80
2021/03/02 00:48:47;;;;;;;;;;;7.70;54.60;;;;;;4999302;28;19929;-80
2021/03/02 00:51:13;;;;;;;;;;;7.70;54.60;;;;;;5012062;28;19921;-79
2021/03/02 00:53:39;;;;;;;;;;;7.60;54.60;;;;;;5015516;28;20402;-80
2021/03/02 00:56:06;;;;;;;;;;;7.60;54.60;;;;;;5006442;28;19928;-80
2021/03/02 00:58:32;;;;;;;;;;;7.60;54.80;;;;;;5015930;28;19922;-80
2021/03/02 01:00:59;;;;;;;;;;;7.60;54.80;;;;;;5014699;28;20382;-81
2021/03/02 01:03:25;;;;;;;;;;;7.60;54.90;;;;;;5015386;28;19922;-78
2021/03/02 01:05:52;;;;;;;;;;;7.60;54.80;;;;;;5004664;28;19922;-78
2021/03/02 01:08:19;;;;;;;;;;;7.50;54.90;;;;;;5031877;28;19932;-78
2021/03/02 01:10:45;;;;;;;;;;;7.50;55.00;;;;;;5022733;28;20255;-79
2021/03/02 01:13:12;;;;;;;;;;;7.50;55.00;;;;;;5015444;28;19929;-78
2021/03/02 01:15:38;;;;;;;;;;;7.50;55.00;;;;;;5012017;28;19921;-79
2021/03/02 01:18:05;;;;;;;;;;;7.50;55.10;;;;;;5014643;28;20015;-78
2021/03/02 01:20:31;;;;;;;;;;;7.50;55.20;;;;;;5014736;28;19922;-78
2021/03/02 01:22:58;;;;;;;;;;;7.50;55.30;;;;;;5015225;28;19944;-78
2021/03/02 01:25:26;;;;;;;;;;;7.50;55.30;;;;;;5014866;28;19952;-82
2021/03/02 01:27:53;;;;;;;;;;;7.50;55.20;;;;;;5015250;28;20492;-81
2021/03/02 01:30:21;;;;;;;;;;;7.50;55.30;;;;;;5013622;28;20278;-81
2021/03/02 01:32:48;;;;;;;;;;;7.50;55.30;;;;;;5014879;28;19925;-81
2021/03/02 01:35:14;;;;;;;;;;;7.50;55.30;;;;;;5013190;28;19937;-81
2021/03/02 01:37:41;;;;;;;;;;;7.50;55.40;;;;;;5013401;28;19921;-81
2021/03/02 01:40:09;;;;;;;;;;;7.50;55.40;;;;;;5013789;28;20288;-81
2021/03/02 01:42:35;;;;;;;;;;;7.40;55.40;;;;;;4995365;28;19921;-81
2021/03/02 01:45:03;;;;;;;;;;;7.40;55.50;;;;;;4994646;28;20363;-81
2021/03/02 01:47:30;;;;;;;;;;;7.40;55.60;;;;;;5014196;28;20377;-79
2021/03/02 01:49:56;;;;;;;;;;;7.30;55.60;;;;;;4998754;28;19926;-80
2021/03/02 01:52:22;;;;;;;;;;;7.30;55.70;;;;;;5011950;28;19991;-79
2021/03/02 01:54:49;;;;;;;;;;;7.30;55.70;;;;;;5000152;28;19928;-79
2021/03/02 01:57:16;;;;;;;;;;;7.30;55.70;;;;;;4994445;28;20279;-79
2021/03/02 01:59:43;;;;;;;;;;;7.30;55.70;;;;;;5007430;28;19921;-79
2021/03/02 02:02:12;;;;;;;;;;;7.30;55.70;;;;;;5002190;28;20329;-78
2021/03/02 02:04:42;;;;;;;;;;;7.30;56.30;;;;;;4993255;28;19929;-79
2021/03/02 02:07:10;;;;;;;;;;;7.20;55.80;;;;;;5013900;28;19921;-79
2021/03/02 02:09:41;;;;;;;;;;;7.20;55.90;;;;;;5033972;28;19925;-78
2021/03/02 02:12:08;;;;;;;;;;;7.20;55.90;;;;;;5022396;28;19952;-78
2021/03/02 02:14:42;;;;;;;;;;;7.20;55.90;;;;;;5014081;28;19921;-79
2021/03/02 02:17:10;;;;;;;;;;;7.10;56.00;;;;;;5012952;28;19932;-77
2021/03/02 02:19:40;;;;;;;;;;;7.10;56.00;;;;;;5009692;28;20436;-82
2021/03/02 02:22:30;;;;;;;;;;;7.00;56.10;;;;;;5005712;28;19921;-82
2021/03/02 02:25:02;;;;;;;;;;;7.00;56.20;;;;;;5007255;28;19945;-82
2021/03/02 02:27:31;;;;;;;;;;;7.00;56.20;;;;;;4994342;28;20279;-82
2021/03/02 02:29:58;;;;;;;;;;;7.00;56.30;;;;;;4994352;28;20438;-82
2021/03/02 02:32:26;;;;;;;;;;;6.90;56.40;;;;;;5001924;28;19922;-82
2021/03/02 02:34:53;;;;;;;;;;;6.90;56.40;;;;;;4994538;28;19976;-83
2021/03/02 02:37:20;;;;;;;;;;;6.90;56.40;;;;;;4995301;28;19921;-84
2021/03/02 02:39:47;;;;;;;;;;;6.90;56.40;;;;;;5012469;28;19926;-83
2021/03/02 02:42:14;;;;;;;;;;;6.90;56.50;;;;;;5012097;28;19922;-82
2021/03/02 02:44:42;;;;;;;;;;;6.90;56.60;;;;;;5012874;28;19929;-81
2021/03/02 02:47:09;;;;;;;;;;;6.80;56.50;;;;;;5011305;28;19922;-82
2021/03/02 02:49:35;;;;;;;;;;;6.80;56.60;;;;;;4994026;28;20023;-82
2021/03/02 02:52:02;;;;;;;;;;;6.80;56.50;;;;;;4995500;28;19925;-82
2021/03/02 02:54:29;;;;;;;;;;;6.80;56.70;;;;;;5014000;28;20286;-83
2021/03/02 02:56:56;;;;;;;;;;;6.80;56.60;;;;;;5010423;28;20382;-82
2021/03/02 02:59:23;;;;;;;;;;;6.70;56.70;;;;;;5012114;28;19928;-82
2021/03/02 03:02:24;;;;;;;;;;;6.70;56.70;;;;;;5013406;28;19928;-85
2021/03/02 03:04:54;;;;;;;;;;;6.70;56.80;;;;;;4993682;28;19921;-83
2021/03/02 03:07:23;;;;;;;;;;;6.70;56.80;;;;;;5019400;28;19929;-83
2021/03/02 03:09:50;;;;;;;;;;;6.70;56.80;;;;;;4993842;28;20287;-83
2021/03/02 03:32:09;;;;;;;;;;;6.50;57.20;;;;;;5030797;28;19947;-85
2021/03/02 04:11:58;;;;;;;;;;;6.40;57.80;;;;;;4890295;29;19922;-82
2021/03/02 04:14:24;;;;;;;;;;;6.40;58.00;;;;;;4948742;28;19922;-82
2021/03/02 04:16:51;;;;;;;;;;;6.40;58.00;;;;;;4987908;28;19968;-81
2021/03/02 04:19:17;;;;;;;;;;;6.40;58.00;;;;;;5017961;28;19921;-82
2021/03/02 04:21:43;;;;;;;;;;;6.30;58.10;;;;;;5036288;28;19959;-82
2021/03/02 04:24:10;;;;;;;;;;;6.30;58.10;;;;;;5036012;28;19931;-82
2021/03/02 04:26:36;;;;;;;;;;;6.30;58.10;;;;;;5035285;28;19928;-82
2021/03/02 04:29:06;;;;;;;;;;;6.30;58.20;;;;;;5035517;28;19921;-82
2021/03/02 04:31:32;;;;;;;;;;;6.30;58.30;;;;;;5035706;28;20396;-81
2021/03/02 04:33:59;;;;;;;;;;;6.20;58.20;;;;;;5025486;28;19921;-81
2021/03/02 04:36:27;;;;;;;;;;;6.20;58.30;;;;;;5015669;28;19925;-83
2021/03/02 04:38:56;;;;;;;;;;;6.10;58.20;;;;;;5025313;28;19921;-83
2021/03/02 04:41:22;;;;;;;;;;;6.20;58.40;;;;;;5035192;28;19920;-81
2021/03/02 04:43:49;;;;;;;;;;;6.20;58.50;;;;;;5032163;28;19927;-79
2021/03/02 04:46:18;;;;;;;;;;;6.20;58.50;;;;;;5030055;28;20401;-80
2021/03/02 04:48:45;;;;;;;;;;;6.20;58.60;;;;;;5020471;28;19921;-77
2021/03/02 04:51:11;;;;;;;;;;;6.20;58.60;;;;;;5035091;28;20348;-77
2021/03/02 04:53:37;;;;;;;;;;;6.10;58.60;;;;;;5030823;28;19926;-77
2021/03/02 04:56:04;;;;;;;;;;;6.10;58.60;;;;;;5015678;28;19928;-78
2021/03/02 04:58:30;;;;;;;;;;;6.10;58.70;;;;;;5018426;28;19925;-78
2021/03/02 05:00:56;;;;;;;;;;;6.10;58.70;;;;;;5028386;28;19921;-78
2021/03/02 05:03:23;;;;;;;;;;;6.10;58.80;;;;;;5015702;28;19925;-78
2021/03/02 05:05:50;;;;;;;;;;;6.10;58.80;;;;;;5014296;28;20048;-78
2021/03/02 05:08:16;;;;;;;;;;;6.10;58.80;;;;;;5049782;28;19943;-77
2021/03/02 05:10:43;;;;;;;;;;;6.00;58.70;;;;;;5013625;28;19992;-78
2021/03/02 05:13:09;;;;;;;;;;;6.00;58.70;;;;;;5015404;28;19976;-77
2021/03/02 05:15:36;;;;;;;;;;;6.00;58.70;;;;;;5015512;28;19921;-77
2021/03/02 05:18:03;;;;;;;;;;;6.00;58.70;;;;;;5015088;28;19925;-78
2021/03/02 05:20:30;;;;;;;;;;;6.00;58.80;;;;;;5031720;28;20295;-78
2021/03/02 05:22:56;;;;;;;;;;;6.00;58.80;;;;;;5034668;28;20308;-78
2021/03/02 05:25:22;;;;;;;;;;;6.00;58.80;;;;;;5032984;28;20381;-77
2021/03/02 05:27:49;;;;;;;;;;;6.00;58.70;;;;;;5034456;28;19924;-78
2021/03/02 05:30:16;;;;;;;;;;;6.00;58.70;;;;;;5019411;28;19921;-79
2021/03/02 05:32:42;;;;;;;;;;;5.90;58.70;;;;;;5015029;28;19993;-78
2021/03/02 05:35:10;;;;;;;;;;;5.90;59.00;;;;;;5015072;28;19928;-78
2021/03/02 05:37:37;;;;;;;;;;;5.90;59.10;;;;;;5022471;28;19921;-77
2021/03/02 05:40:06;;;;;;;;;;;5.90;59.20;;;;;;5030740;28;19921;-78
2021/03/02 05:42:33;;;;;;;;;;;5.90;59.20;;;;;;5017308;28;19944;-78
2021/03/02 05:45:00;;;;;;;;;;;5.90;59.90;;;;;;5023533;28;19924;-79
2021/03/02 05:47:26;;;;;;;;;;;5.90;59.30;;;;;;5034857;28;20003;-79
2021/03/02 05:49:52;;;;;;;;;;;5.90;59.40;;;;;;5027828;28;20613;-78
2021/03/02 05:52:19;;;;;;;;;;;5.80;59.30;;;;;;5031636;28;19921;-79
2021/03/02 05:54:46;;;;;;;;;;;5.80;59.40;;;;;;5020412;28;19929;-78
2021/03/02 05:57:13;;;;;;;;;;;5.80;59.40;;;;;;5024461;28;20377;-79
2021/03/02 05:59:39;;;;;;;;;;;5.80;59.40;;;;;;5033665;28;19936;-79
2021/03/02 06:02:06;;;;;;;;;;;5.80;59.50;;;;;;5031492;28;19921;-79
2021/03/02 06:04:32;;;;;;;;;;;5.80;59.50;;;;;;5020232;28;19921;-78
2021/03/02 06:07:01;;;;;;;;;;;5.80;59.50;;;;;;5025532;28;19921;-79
2021/03/02 06:09:27;;;;;;;;;;;5.80;59.50;;;;;;5033288;28;19943;-79
2021/03/02 06:12:01;;;;;;;;;;;5.90;59.60;;;;;;5032523;28;20438;-76
2021/03/02 06:14:30;;;;;;;;;;;5.90;59.60;;;;;;5031954;28;19928;-78
2021/03/02 06:16:57;;;;;;;;;;;5.90;59.60;;;;;;5033126;28;19931;-77
2021/03/02 06:19:38;;;;;;;;;;;5.90;59.70;;;;;;5028484;28;19922;-78
2021/03/02 06:22:04;;;;;;;;;;;5.90;59.70;;;;;;5028719;28;19921;-78
2021/03/02 06:24:37;;;;;;;;;;;5.90;59.80;;;;;;5023957;28;19922;-78
2021/03/02 06:27:08;;;;;;;;;;;6.00;59.80;;;;;;5031054;28;20389;-77
2021/03/02 06:29:35;;;;;;;;;;;6.00;59.80;;;;;;5030424;28;20333;-77
2021/03/02 06:32:01;;;;;;;;;;;6.00;59.80;;;;;;5033223;28;19928;-77
2021/03/02 06:34:27;;;;;;;;;;;6.10;60.60;;;;;;5032904;28;19921;-76
2021/03/02 06:37:00;;;;;;;;;;;6.10;59.90;;;;;;5033122;28;19929;-77
2021/03/02 06:39:28;;;;;;;;;;;6.20;59.90;;;;;;5027425;28;19925;-76
2021/03/02 06:42:10;;;;;;;;;;;6.20;59.80;;;;;;5015620;28;20305;-75
2021/03/02 06:44:37;;;;;;;;;;;6.30;59.80;;;;;;5029694;28;19928;-76
2021/03/02 06:47:04;;;;;;;;;;;6.40;59.80;;;;;;5033043;28;19928;-76
2021/03/02 06:49:41;;;;;;;;;;;6.40;59.70;;;;;;5029273;28;19967;-76
2021/03/02 06:52:15;;;;;;;;;;;6.40;59.60;;;;;;5023494;28;19921;-76
2021/03/02 06:54:41;;;;;;;;;;;6.50;59.50;;;;;;5031192;28;19925;-77
2021/03/02 06:57:07;;;;;;;;;;;6.50;59.50;;;;;;5030662;28;19921;-76
2021/03/02 06:59:34;;;;;;;;;;;6.50;59.50;;;;;;5029622;28;19920;-77
2021/03/02 07:02:01;;;;;;;;;;;6.50;59.60;;;;;;5020845;28;19925;-75
2021/03/02 07:04:28;;;;;;;;;;;6.50;59.60;;;;;;5017028;28;20394;-75
2021/03/02 07:06:56;;;;;;;;;;;6.50;59.70;;;;;;5030236;28;19931;-75
2021/03/02 07:09:22;;;;;;;;;;;6.50;59.70;;;;;;5031474;28;19921;-75
2021/03/02 07:11:49;;;;;;;;;;;6.60;59.80;;;;;;5032366;28;19932;-75
2021/03/02 07:14:16;;;;;;;;;;;6.60;59.80;;;;;;5023758;28;20420;-75
2021/03/02 07:16:43;;;;;;;;;;;6.70;59.70;;;;;;5028588;28;19925;-75
2021/03/02 07:19:14;;;;;;;;;;;6.80;59.60;;;;;;5035447;28;19929;-75
2021/03/02 07:21:43;;;;;;;;;;;7.00;59.60;;;;;;5027417;28;20392;-75
2021/03/02 07:24:12;;;;;;;;;;;7.10;59.50;;;;;;5030167;28;20369;-74
2021/03/02 07:26:42;;;;;;;;;;;7.30;59.40;;;;;;5031694;28;20425;-75
2021/03/02 07:29:08;;;;;;;;;;;7.40;59.30;;;;;;5031343;28;19979;-75
2021/03/02 07:31:36;;;;;;;;;;;7.60;59.20;;;;;;5026680;28;19925;-75
2021/03/02 07:34:05;;;;;;;;;;;7.80;59.10;;;;;;5031255;28;19921;-75
2021/03/02 07:36:33;;;;;;;;;;;8.00;58.70;;;;;;5029928;28;19925;-73
2021/03/02 07:39:19;;;;;;;;;;;8.20;58.50;;;;;;5026667;28;19921;-74
2021/03/02 07:41:46;;;;;;;;;;;8.40;58.30;;;;;;5031546;28;20431;-75
2021/03/02 07:44:13;;;;;;;;;;;8.70;58.10;;;;;;5031539;28;19921;-75
2021/03/02 07:46:43;;;;;;;;;;;8.90;57.60;;;;;;5031376;28;19921;-74
2021/03/02 07:49:27;;;;;;;;;;;9.10;57.10;;;;;;5013456;28;19922;-74
2021/03/02 07:52:17;;;;;;;;;;;9.30;56.80;;;;;;5027927;28;19929;-75
2021/03/02 07:54:46;;;;;;;;;;;9.60;56.30;;;;;;5015442;28;19928;-75
2021/03/02 07:57:25;;;;;;;;;;;9.90;56.00;;;;;;5029512;28;19929;-75
2021/03/02 08:00:09;;;;;;;;;;;10.00;54.20;;;;;;5025244;28;19921;-74
2021/03/02 08:02:36;;;;;;;;;;;10.30;54.00;;;;;;5036289;28;19928;-75
2021/03/02 08:05:28;;;;;;;;;;;10.50;53.60;;;;;;5036144;28;19921;-74
2021/03/02 08:08:26;;;;;;;;;;;10.60;53.10;;;;;;5050515;28;19929;-75
2021/03/02 08:10:54;;;;;;;;;;;10.80;52.90;;;;;;5056033;28;19921;-76
2021/03/02 08:13:36;;;;;;;;;;;11.00;52.60;;;;;;5054454;28;19925;-75
2021/03/02 08:16:03;;;;;;;;;;;11.10;52.10;;;;;;5036163;28;19928;-76
2021/03/02 08:18:31;;;;;;;;;;;11.20;51.70;;;;;;5034417;28;19931;-76
2021/03/02 08:21:03;;;;;;;;;;;11.30;51.40;;;;;;5036155;28;19921;-76
2021/03/02 08:23:43;;;;;;;;;;;11.30;51.20;;;;;;5028763;28;19925;-77
2021/03/02 08:26:20;;;;;;;;;;;11.40;51.00;;;;;;5030622;28;19964;-76
2021/03/02 08:29:01;;;;;;;;;;;11.50;50.90;;;;;;5016221;28;20004;-76
2021/03/02 08:31:28;;;;;;;;;;;11.50;50.50;;;;;;5029341;28;19921;-77
2021/03/02 08:33:55;;;;;;;;;;;11.60;50.70;;;;;;5031703;28;20423;-77
2021/03/02 08:36:22;;;;;;;;;;;11.70;50.30;;;;;;5019426;28;19921;-77
2021/03/02 08:38:48;;;;;;;;;;;11.80;50.20;;;;;;5023056;28;19921;-77
2021/03/02 08:41:26;;;;;;;;;;;11.80;49.90;;;;;;5028687;28;20246;-77
2021/03/02 08:43:53;;;;;;;;;;;11.90;49.80;;;;;;5019385;28;19928;-77
2021/03/02 08:46:22;;;;;;;;;;;11.90;49.60;;;;;;5025513;28;19933;-75
2021/03/02 08:48:49;;;;;;;;;;;12.00;49.50;;;;;;5030302;28;19952;-75
2021/03/02 08:51:19;;;;;;;;;;;12.10;49.60;;;;;;5035603;28;20289;-76
2021/03/02 08:53:47;;;;;;;;;;;12.10;49.60;;;;;;5023393;28;19925;-76
2021/03/02 08:56:24;;;;;;;;;;;12.10;49.70;;;;;;5024476;28;19921;-77
2021/03/02 08:58:51;;;;;;;;;;;12.10;49.60;;;;;;5033434;28;19948;-76
2021/03/02 09:01:27;;;;;;;;;;;12.10;49.50;;;;;;5035441;28;20316;-76
2021/03/02 09:03:54;;;;;;;;;;;12.10;49.60;;;;;;5033642;28;20362;-76
2021/03/02 09:06:21;;;;;;;;;;;12.10;49.60;;;;;;5036054;28;19968;-76
2021/03/02 09:08:55;;;;;;;;;;;12.10;49.50;;;;;;5050249;28;19921;-77
2021/03/02 09:11:23;;;;;;;;;;;12.10;49.40;;;;;;5014117;28;19921;-76
2021/03/02 09:13:50;;;;;;;;;;;12.10;49.50;;;;;;5016995;28;19929;-76
2021/03/02 09:16:27;;;;;;;;;;;12.10;49.70;;;;;;5034613;28;20447;-76
2021/03/02 09:19:00;;;;;;;;;;;12.10;49.70;;;;;;5033311;28;19929;-75
2021/03/02 09:21:27;;;;;;;;;;;12.10;49.60;;;;;;5035073;28;19921;-75
2021/03/02 09:23:53;;;;;;;;;;;12.00;49.80;;;;;;5016636;28;19925;-76
2021/03/02 09:26:20;;;;;;;;;;;12.00;49.90;;;;;;5015030;28;19928;-75
2021/03/02 09:28:50;;;;;;;;;;;12.00;49.70;;;;;;5015656;28;19925;-76
2021/03/02 09:31:16;;;;;;;;;;;12.00;49.90;;;;;;5014963;28;20358;-76
2021/03/02 09:33:43;;;;;;;;;;;11.90;50.00;;;;;;5030290;28;20396;-76
2021/03/02 09:36:10;;;;;;;;;;;12.00;50.30;;;;;;5033308;28;19953;-76
2021/03/02 09:38:36;;;;;;;;;;;11.90;50.10;;;;;;5020332;28;20333;-76
2021/03/02 09:41:02;;;;;;;;;;;11.90;50.10;;;;;;5014817;28;19921;-76
2021/03/02 09:43:34;;;;;;;;;;;11.90;50.30;;;;;;5026912;28;19921;-76
2021/03/02 09:46:00;;;;;;;;;;;11.90;50.40;;;;;;5034139;28;19967;-75
2021/03/02 09:48:26;;;;;;;;;;;11.90;50.40;;;;;;5032756;28;20004;-75
2021/03/02 09:50:54;;;;;;;;;;;11.90;50.60;;;;;;5034308;28;20352;-77
2021/03/02 09:53:20;;;;;;;;;;;11.90;50.80;;;;;;5021368;28;20012;-76
2021/03/02 09:55:47;;;;;;;;;;;12.00;51.00;;;;;;5014595;28;19943;-77
2021/03/02 09:58:16;;;;;;;;;;;12.10;50.90;;;;;;5029984;28;20620;-77
2021/03/02 10:00:48;;;;;;;;;;;12.10;50.70;;;;;;5034102;28;19921;-77
2021/03/02 10:03:15;;;;;;;;;;;12.30;50.70;;;;;;5030883;28;20344;-76
2021/03/02 10:05:42;;;;;;;;;;;12.30;50.40;;;;;;5027459;28;20354;-77
2021/03/02 10:08:20;;;;;;;;;;;12.40;50.30;;;;;;5049852;28;19925;-76
2021/03/02 10:10:47;;;;;;;;;;;12.50;50.30;;;;;;5030634;28;19926;-78
2021/03/02 10:13:20;;;;;;;;;;;12.70;50.10;;;;;;5024063;28;19921;-78
2021/03/02 10:15:47;;;;;;;;;;;12.70;49.90;;;;;;5030280;28;20344;-76
2021/03/02 10:18:22;;;;;;;;;;;12.90;49.90;;;;;;5028980;28;19928;-77
2021/03/02 10:21:04;;;;;;;;;;;13.00;49.80;;;;;;5021447;28;20000;-77
2021/03/02 10:23:31;;;;;;;;;;;13.20;49.60;;;;;;5033666;28;19925;-77
2021/03/02 10:25:57;;;;;;;;;;;13.30;49.20;;;;;;5039348;28;19920;-77
2021/03/02 10:28:29;;;;;;;;;;;13.40;49.00;;;;;;5039429;28;20473;-77
2021/03/02 10:30:55;;;;;;;;;;;13.50;48.50;;;;;;5031949;28;19921;-75
2021/03/02 10:33:21;;;;;;;;;;;13.60;48.40;;;;;;5033116;28;19921;-75
2021/03/02 10:35:48;;;;;;;;;;;13.80;48.30;;;;;;5024097;28;19928;-76
2021/03/02 10:38:14;;;;;;;;;;;13.90;47.80;;;;;;5024264;28;20286;-76
2021/03/02 10:40:41;;;;;;;;;;;14.10;47.60;;;;;;5014758;28;19929;-76
2021/03/02 10:43:08;;;;;;;;;;;14.30;47.90;;;;;;5028281;28;20362;-76
2021/03/02 10:45:34;;;;;;;;;;;14.50;47.60;;;;;;5032232;28;20411;-76
2021/03/02 10:48:00;;;;;;;;;;;14.80;47.40;;;;;;5016714;28;19925;-76
2021/03/02 10:50:27;;;;;;;;;;;15.00;46.30;;;;;;5020388;28;19921;-75
2021/03/02 10:52:54;;;;;;;;;;;15.30;46.00;;;;;;5016178;28;19921;-75
2021/03/02 10:55:21;;;;;;;;;;;15.60;45.90;;;;;;5025360;28;19921;-75
2021/03/02 10:57:48;;;;;;;;;;;16.00;45.00;;;;;;5029814;28;20287;-75
2021/03/02 11:00:16;;;;;;;;;;;16.40;44.40;;;;;;5033265;28;19921;-75
2021/03/02 11:02:43;;;;;;;;;;;17.00;43.70;;;;;;5022373;28;19921;-75
2021/03/02 11:05:10;;;;;;;;;;;17.60;42.70;;;;;;5031568;28;19921;-76
2021/03/02 11:07:36;;;;;;;;;;;18.20;41.70;;;;;;5044649;28;19927;-76
2021/03/02 11:10:03;;;;;;;;;;;18.90;40.30;;;;;;5014729;28;19928;-76
2021/03/02 11:12:29;;;;;;;;;;;19.60;39.40;;;;;;5030861;28;20003;-76
2021/03/02 11:14:57;;;;;;;;;;;20.30;38.10;;;;;;5018328;28;19944;-76
2021/03/02 11:17:23;;;;;;;;;;;21.00;37.00;;;;;;5032189;28;20435;-76
2021/03/02 11:19:49;;;;;;;;;;;21.80;35.90;;;;;;5028245;28;19928;-74
2021/03/02 11:22:16;;;;;;;;;;;22.60;34.60;;;;;;5021202;28;19921;-78
2021/03/02 11:24:42;;;;;;;;;;;23.40;33.10;;;;;;5023889;28;19921;-77
2021/03/02 11:27:08;;;;;;;;;;;24.20;31.50;;;;;;5013239;28;20317;-78
2021/03/02 11:29:36;;;;;;;;;;;25.00;30.20;;;;;;5017593;28;19967;-78
2021/03/02 11:32:03;;;;;;;;;;;26.00;29.30;;;;;;5034200;28;19979;-77
2021/03/02 11:34:30;;;;;;;;;;;27.10;27.90;;;;;;5017335;28;19928;-76
2021/03/02 11:36:56;;;;;;;;;;;28.10;26.30;;;;;;5016999;28;20306;-76
2021/03/02 11:39:22;;;;;;;;;;;29.30;25.40;;;;;;5018147;28;19921;-76
2021/03/02 11:41:49;;;;;;;;;;;30.60;24.30;;;;;;5036053;28;19932;-76
2021/03/02 11:44:15;;;;;;;;;;;31.80;23.00;;;;;;5036479;28;19931;-76
2021/03/02 11:46:41;;;;;;;;;;;33.00;22.30;;;;;;5026476;28;19932;-77
2021/03/02 11:49:09;;;;;;;;;;;34.00;21.10;;;;;;5034253;28;19966;-77
2021/03/02 11:51:35;;;;;;;;;;;34.80;20.20;;;;;;5034552;28;20278;-76
2021/03/02 11:54:01;;;;;;;;;;;34.20;19.40;;;;;;5016786;28;19921;-76
2021/03/02 11:56:27;;;;;;;;;;;31.40;20.60;;;;;;5020760;28;19921;-76
2021/03/02 11:58:54;;;;;;;;;;;28.50;22.40;;;;;;5035153;28;19925;-76
2021/03/02 12:01:20;;;;;;;;;;;26.10;24.70;;;;;;5021825;28;20389;-77
2021/03/02 12:03:46;;;;;;;;;;;24.10;26.50;;;;;;5028893;28;19936;-76
2021/03/02 12:06:14;;;;;;;;;;;22.70;28.00;;;;;;5034079;28;19921;-76
2021/03/02 12:08:40;;;;;;;;;;;21.50;29.00;;;;;;5035551;28;19932;-78
2021/03/02 12:11:07;;;;;;;;;;;20.60;30.20;;;;;;5035985;28;19921;-76
2021/03/02 12:13:33;;;;;;;;;;;20.00;31.70;;;;;;5032482;28;20274;-76
2021/03/02 12:15:59;;;;;;;;;;;19.50;32.80;;;;;;5025681;28;20408;-77
2021/03/02 12:18:26;;;;;;;;;;;19.10;33.40;;;;;;5016249;28;19922;-76
2021/03/02 12:20:52;;;;;;;;;;;18.80;33.60;;;;;;5016356;28;20370;-78
2021/03/02 12:23:19;;;;;;;;;;;18.50;34.50;;;;;;5017232;28;20016;-76
2021/03/02 12:25:45;;;;;;;;;;;18.20;35.10;;;;;;5029979;28;19921;-77
2021/03/02 12:28:12;;;;;;;;;;;17.90;35.20;;;;;;5035762;28;20011;-78
2021/03/02 12:30:39;;;;;;;;;;;17.70;35.30;;;;;;5034862;28;20023;-77
2021/03/02 12:33:06;;;;;;;;;;;17.60;35.40;;;;;;5035962;28;19925;-77
2021/03/02 12:35:33;;;;;;;;;;;17.50;36.40;;;;;;5034777;28;20373;-77
2021/03/02 12:37:59;;;;;;;;;;;17.40;36.10;;;;;;5033866;28;19921;-77
2021/03/02 12:40:26;;;;;;;;;;;17.30;36.20;;;;;;5027488;28;19964;-80
2021/03/02 12:42:53;;;;;;;;;;;17.30;36.30;;;;;;5032318;28;19921;-79
2021/03/02 12:45:19;;;;;;;;;;;17.30;36.40;;;;;;5033568;28;19996;-79
2021/03/02 12:47:45;;;;;;;;;;;17.20;36.50;;;;;;5041162;28;20012;-79
2021/03/02 12:50:12;;;;;;;;;;;17.10;36.50;;;;;;5030485;28;19947;-78
2021/03/02 12:52:39;;;;;;;;;;;17.00;36.60;;;;;;5033797;28;19940;-83
2021/03/02 12:55:06;;;;;;;;;;;17.00;36.70;;;;;;5032032;28;19925;-81
2021/03/02 12:57:34;;;;;;;;;;;17.00;36.70;;;;;;5034507;28;19928;-80
2021/03/02 13:00:00;;;;;;;;;;;16.90;36.70;;;;;;5034855;28;20059;-79
2021/03/02 13:02:28;;;;;;;;;;;16.80;36.70;;;;;;5034451;28;19932;-79
2021/03/02 13:04:54;;;;;;;;;;;16.80;36.90;;;;;;5019518;28;19932;-79
2021/03/02 13:07:21;;;;;;;;;;;16.80;36.90;;;;;;5021145;28;19932;-80
2021/03/02 13:09:48;;;;;;;;;;;16.80;37.20;;;;;;5014614;28;19925;-79
2021/03/02 13:12:14;;;;;;;;;;;16.80;37.30;;;;;;5034228;28;20297;-81
2021/03/02 13:14:41;;;;;;;;;;;16.80;37.30;;;;;;5033539;28;19921;-80
2021/03/02 13:17:07;;;;;;;;;;;16.80;37.10;;;;;;5033382;28;19944;-80
2021/03/02 13:19:34;;;;;;;;;;;16.80;37.00;;;;;;5015157;28;19979;-79
2021/03/02 13:22:00;;;;;;;;;;;16.80;36.90;;;;;;5029717;28;19974;-80
2021/03/02 13:24:27;;;;;;;;;;;16.90;37.00;;;;;;5034388;28;19975;-79
2021/03/02 13:26:54;;;;;;;;;;;16.90;37.00;;;;;;5034872;28;20370;-80
2021/03/02 13:29:21;;;;;;;;;;;16.90;36.80;;;;;;5014895;28;20452;-79
2021/03/02 13:31:49;;;;;;;;;;;16.90;36.80;;;;;;5027434;28;20282;-79
2021/03/02 13:34:17;;;;;;;;;;;16.90;36.90;;;;;;5034688;28;19921;-79
2021/03/02 13:36:44;;;;;;;;;;;16.80;36.70;;;;;;5033150;28;19921;-79
2021/03/02 13:39:15;;;;;;;;;;;16.80;36.90;;;;;;5033641;28;19929;-79
2021/03/02 13:41:42;;;;;;;;;;;16.80;36.90;;;;;;5025670;28;20286;-79
2021/03/02 13:44:09;;;;;;;;;;;16.80;36.90;;;;;;5032794;28;19944;-79
2021/03/02 13:46:36;;;;;;;;;;;16.90;37.00;;;;;;5014604;28;19921;-79
2021/03/02 13:49:03;;;;;;;;;;;16.90;37.30;;;;;;5015601;28;19921;-79
2021/03/02 13:51:30;;;;;;;;;;;16.90;37.60;;;;;;5017889;28;19925;-80
2021/03/02 13:53:56;;;;;;;;;;;16.90;38.00;;;;;;5034251;28;19925;-79
2021/03/02 13:56:24;;;;;;;;;;;16.80;38.10;;;;;;5030069;28;20278;-80
2021/03/02 13:58:50;;;;;;;;;;;16.80;38.00;;;;;;5031540;28;19921;-81
2021/03/02 14:01:17;;;;;;;;;;;16.90;38.00;;;;;;5014634;28;19925;-81
2021/03/02 14:03:44;;;;;;;;;;;16.90;37.90;;;;;;5015098;28;19925;-81
2021/03/02 14:06:11;;;;;;;;;;;16.90;38.00;;;;;;5025988;28;19940;-81
2021/03/02 14:08:41;;;;;;;;;;;16.90;38.00;;;;;;5018213;28;19922;-81
2021/03/02 14:11:08;;;;;;;;;;;16.90;38.00;;;;;;5027458;28;19928;-80
2021/03/02 14:13:35;;;;;;;;;;;16.90;38.00;;;;;;5033498;28;19928;-80
2021/03/02 14:16:05;;;;;;;;;;;16.90;37.90;;;;;;5032255;28;19967;-80
2021/03/02 14:18:32;;;;;;;;;;;16.90;38.00;;;;;;5034118;28;19927;-80
2021/03/02 14:20:58;;;;;;;;;;;16.90;38.20;;;;;;5028508;28;19921;-80
2021/03/02 14:23:26;;;;;;;;;;;16.90;38.20;;;;;;5013969;28;19928;-80
2021/03/02 14:25:52;;;;;;;;;;;16.90;37.90;;;;;;5014872;28;19936;-79
2021/03/02 14:28:18;;;;;;;;;;;16.90;37.80;;;;;;5012074;28;19921;-80
2021/03/02 14:30:45;;;;;;;;;;;16.90;37.80;;;;;;5014980;28;19925;-80
2021/03/02 14:33:11;;;;;;;;;;;16.90;37.70;;;;;;5013896;28;19921;-80
2021/03/02 14:35:38;;;;;;;;;;;16.80;37.70;;;;;;5031188;28;19921;-82
2021/03/02 14:38:05;;;;;;;;;;;16.80;37.70;;;;;;5033463;28;19924;-81
2021/03/02 14:40:32;;;;;;;;;;;16.80;37.80;;;;;;5016934;28;19921;-81
2021/03/02 14:43:01;;;;;;;;;;;16.80;37.70;;;;;;5030793;28;19921;-81
2021/03/02 14:45:29;;;;;;;;;;;16.80;37.90;;;;;;5017999;28;19944;-82
2021/03/02 14:47:56;;;;;;;;;;;16.80;37.80;;;;;;5013904;28;20364;-81
2021/03/02 14:50:26;;;;;;;;;;;16.80;37.80;;;;;;5025086;28;20312;-82
2021/03/02 14:52:52;;;;;;;;;;;16.80;37.80;;;;;;5019125;28;19925;-80
2021/03/02 14:55:20;;;;;;;;;;;16.80;37.80;;;;;;5024140;28;19921;-80
2021/03/02 14:57:47;;;;;;;;;;;16.80;37.70;;;;;;5024987;28;19926;-79
2021/03/02 15:00:15;;;;;;;;;;;16.80;37.70;;;;;;5030812;28;19925;-79
2021/03/02 15:02:42;;;;;;;;;;;16.70;37.70;;;;;;5022996;28;20289;-79
2021/03/02 15:05:09;;;;;;;;;;;16.70;37.70;;;;;;5013325;28;19922;-79
2021/03/02 15:07:35;;;;;;;;;;;16.70;37.70;;;;;;5018411;28;20374;-79
2021/03/02 15:10:02;;;;;;;;;;;16.70;37.70;;;;;;5017811;28;19920;-80
2021/03/02 15:12:29;;;;;;;;;;;16.70;37.70;;;;;;5033035;28;19971;-80
2021/03/02 15:14:56;;;;;;;;;;;16.70;38.20;;;;;;5029829;28;19922;-80
2021/03/02 15:17:23;;;;;;;;;;;16.60;38.30;;;;;;5023535;28;19925;-79
2021/03/02 15:19:50;;;;;;;;;;;16.60;38.40;;;;;;5014878;28;19929;-79
2021/03/02 15:22:17;;;;;;;;;;;16.60;38.60;;;;;;5031205;28;19925;-79
2021/03/02 15:24:46;;;;;;;;;;;16.50;38.80;;;;;;5032500;28;19921;-79
2021/03/02 15:27:13;;;;;;;;;;;16.50;38.90;;;;;;5027101;28;19929;-79